Latest Coastal Weather Observations for Edithburgh

IDS60701

Issued at 5:15 pm CST Thursday 18 September 2014 (issued every 10 minutes, with the page automatically refreshed every 10 minutes)

About coastal observations | Map of coastal stations | Coastal observations for SA | Marine services | Other Formats
Station Details ID: 022046 Name: EDITHBURGH Lat: -35.11 Lon: 137.74 Height: 6.0 m
Data from the previous 72 hours. | See also: Recent months at Edithburgh
Date/Time
CST
Temp

°C
Wind Pressure Rain
since 9am
mm
Weather Cloud Vis
km
Sea
Height
m
Swell
Dir
 
Speed
knots
Gust
knots
hPa Trend Height
m
Period
s
Dir
18/05:00pm 12.3 SSE 6 7 1025.3 - 0.0 - - - - - - -
18/04:30pm 13.1 S 7 9 1025.1 - 0.0 - - - - - - -
18/04:00pm 13.3 SE 5 8 1025.2 - 0.0 - - - - - - -
18/03:30pm 13.4 SE 5 8 1025.1 - 0.0 - - - - - - -
18/03:00pm 13.6 SE 5 7 1025.2 - 0.0 - - - - - - -
18/02:30pm 12.9 ESE 5 7 1025.4 - 0.0 - - - - - - -
18/02:00pm 13.6 SE 5 7 1025.5 - 0.0 - - - - - - -
18/01:30pm 14.4 ESE 6 9 1025.7 - 0.0 - - - - - - -
18/01:00pm 13.9 SE 4 10 1025.9 - 0.0 - - - - - - -
18/12:30pm 14.2 SE 7 9 1025.8 - 0.0 - - - - - - -
18/12:00pm 14.3 SSE 7 10 1026.1 - 0.0 - - - - - - -
18/11:30am 14.4 S 8 11 1026.3 - 0.0 - - - - - - -
18/11:00am 14.6 S 6 10 1026.4 - 0.0 - - - - - - -
18/10:30am 13.4 SSE 5 9 1026.6 - 0.0 - - - - - - -
18/10:00am 13.8 S 6 9 1026.8 - 0.0 - - - - - - -
18/09:30am 13.3 SE 6 11 1027.0 - 0.0 - - - - - - -
18/09:00am 13.3 S 6 9 1027.2 - 0.0 - - - - - - -
18/08:30am 12.7 SSW 7 9 1027.1 - 0.0 - - - - - - -
18/08:00am 12.4 SW 5 8 1026.7 - 0.0 - - - - - - -
18/07:30am 10.1 W 2 6 1026.4 - 0.0 - - - - - - -
18/07:00am 8.3 W 4 5 1026.2 - 0.0 - - - - - - -
18/06:30am 7.7 WSW 3 5 1025.8 - 0.0 - - - - - - -
18/06:00am 6.5 W 6 6 1025.5 - 0.0 - - - - - - -
18/05:30am 6.2 W 3 5 1025.3 - 0.0 - - - - - - -
18/05:00am 6.1 W 3 5 1025.0 - 0.0 - - - - - - -
18/04:30am 5.7 WNW 3 5 1024.7 - 0.0 - - - - - - -
18/04:00am 6.5 W 3 4 1024.7 - 0.0 - - - - - - -
18/03:30am 6.1 W 4 5 1024.8 - 0.0 - - - - - - -
18/03:00am 5.2 W 3 5 1025.0 - 0.0 - - - - - - -
18/02:30am 4.9 W 3 4 1025.1 - 0.0 - - - - - - -
18/02:00am 4.9 W 3 4 1025.2 - 0.0 - - - - - - -
18/01:30am 6.2 W 4 4 1025.3 - 0.0 - - - - - - -
18/01:00am 5.9 WSW 4 4 1025.6 - 0.0 - - - - - - -
18/12:30am 8.9 SW 4 7 1025.7 - 0.0 - - - - - - -
18/12:00am 9.3 SW 5 6 1025.7 - 0.0 - - - - - - -
 
Date/Time
CST
Temp

°C
Wind Pressure Rain
since 9am
mm
Weather Cloud Vis
km
Sea
Height
m
Swell
Dir
 
Speed
knots
Gust
knots
hPa Trend Height
m
Period
s
Dir
17/11:30pm 10.5 S 7 11 1025.8 - 0.0 - - - - - - -
17/11:00pm 10.4 SSW 7 10 1025.6 - 0.0 - - - - - - -
17/10:30pm 10.6 S 7 11 1025.5 - 0.0 - - - - - - -
17/10:00pm 11.2 S 9 12 1025.3 - 0.0 - - - - - - -
17/09:30pm 11.2 S 9 13 1025.3 - 0.0 - - - - - - -
17/09:00pm 11.0 S 8 11 1025.2 - 0.0 - - - - - - -
17/08:30pm 11.4 S 9 12 1025.0 - 0.0 - - - - - - -
17/08:00pm 11.9 S 8 12 1024.8 - 0.0 - - - - - - -
17/07:30pm 12.0 S 10 14 1024.6 - 0.0 - - - - - - -
17/07:00pm 12.1 SSE 8 13 1024.3 - 0.0 - - - - - - -
17/06:30pm 11.9 SSE 10 13 1024.1 - 0.0 - - - - - - -
17/06:00pm 12.1 SSE 9 12 1023.9 - 0.0 - - - - - - -
17/05:30pm 12.9 SSE 10 13 1023.5 - 0.0 - - - - - - -
17/05:00pm 13.1 SSE 9 13 1023.1 - 0.0 - - - - - - -
17/04:30pm 13.5 SSE 10 14 1022.9 - 0.0 - - - - - - -
17/04:00pm 14.1 SSE 10 14 1022.8 - 0.0 - - - - - - -
17/03:30pm 14.4 S 10 13 1022.5 - 0.0 - - - - - - -
17/03:00pm 14.5 S 8 10 1022.6 - 0.0 - - - - - - -
17/02:30pm 14.5 SSW 9 12 1022.4 - 0.0 - - - - - - -
17/02:00pm 14.8 SW 7 10 1022.3 - 0.0 - - - - - - -
17/01:30pm 14.6 SW 9 13 1022.4 - 0.0 - - - - - - -
17/01:00pm 15.4 S 8 13 1022.5 - 0.0 - - - - - - -
17/12:30pm 15.4 SW 9 13 1022.5 - 0.0 - - - - - - -
17/12:00pm 15.6 SSW 8 12 1022.5 - 0.0 - - - - - - -
17/11:30am 15.5 SW 9 13 1022.8 - 0.0 - - - - - - -
17/11:00am 15.6 SSW 9 14 1022.8 - 0.0 - - - - - - -
17/10:30am 15.1 SSW 10 14 1022.6 - 0.0 - - - - - - -
17/10:00am 14.4 SSW 10 13 1022.5 - 0.0 - - - - - - -
17/09:30am 14.4 SSW 8 13 1022.3 - 0.0 - - - - - - -
17/09:00am 14.0 SSW 11 16 1022.1 - 1.8 - - - - - - -
17/08:30am 13.7 SW 8 11 1021.8 - 1.8 - - - - - - -
17/08:00am 13.1 SW 9 13 1021.4 - 1.8 - - - - - - -
17/07:30am 12.4 SW 8 11 1021.0 - 1.8 - - - - - - -
17/07:00am 11.0 SW 7 9 1020.6 - 1.8 - - - - - - -
17/06:30am 9.8 WSW 6 9 1020.3 - 1.8 - - - - - - -
17/06:00am 10.0 WSW 7 9 1019.9 - 1.8 - - - - - - -
17/05:30am 10.0 WSW 6 8 1019.6 - 1.8 - - - - - - -
17/05:00am 9.9 WSW 6 10 1019.4 - 1.8 - - - - - - -
17/04:30am 10.0 WSW 7 11 1019.3 - 1.8 - - - - - - -
17/04:00am 9.2 WSW 5 7 1019.2 - 1.8 - - - - - - -
17/03:30am 9.1 W 5 7 1019.0 - 1.8 - - - - - - -
17/03:00am 10.4 WSW 6 9 1018.9 - 1.8 Recent precip. - - - - - -
17/02:30am 10.6 SW 8 12 1019.2 - 1.6 - - - - - - -
17/02:00am 8.9 W 7 9 1019.2 - 0.0 - - - - - - -
17/01:30am 8.2 WNW 7 9 1019.4 - 0.0 - - - - - - -
17/01:00am 8.2 WNW 7 9 1019.5 - 0.0 - - - - - - -
17/12:30am 8.4 WNW 6 7 1019.6 - 0.0 - - - - - - -
17/12:00am 8.9 WNW 7 9 1019.8 - 0.0 - - - - - - -
 
Date/Time
CST
Temp

°C
Wind Pressure Rain
since 9am
mm
Weather Cloud Vis
km
Sea
Height
m
Swell
Dir
 
Speed
knots
Gust
knots
hPa Trend Height
m
Period
s
Dir
16/11:30pm 9.5 WSW 6 8 1019.8 - 0.0 - - - - - - -
16/11:00pm 9.8 WSW 4 6 1019.7 - 0.0 - - - - - - -
16/10:30pm 11.3 SW 8 11 1019.8 - 0.0 - - - - - - -
16/10:00pm 12.4 WSW 7 14 1019.9 - 0.0 - - - - - - -
16/09:30pm 12.4 WSW 9 15 1019.7 - 0.0 - - - - - - -
16/09:00pm 12.5 SW 9 14 1019.6 - 0.0 - - - - - - -
16/08:30pm 12.2 WSW 8 12 1019.2 - 0.0 - - - - - - -
16/08:00pm 11.9 WSW 7 10 1018.8 - 0.0 - - - - - - -
16/07:30pm 12.3 WSW 8 14 1018.4 - 0.0 - - - - - - -
16/07:00pm 12.4 WSW 10 16 1018.2 - 0.0 - - - - - - -
16/06:30pm 12.8 WSW 10 14 1017.9 - 0.0 - - - - - - -
16/06:00pm 12.7 WSW 11 18 1017.6 - 0.0 - - - - - - -
16/05:30pm 13.3 WSW 10 14 1017.4 - 0.0 - - - - - - -
16/05:00pm 14.2 WSW 11 17 1017.3 - 0.0 - - - - - - -
16/04:30pm 14.6 WSW 11 18 1017.3 - 0.0 - - - - - - -
16/04:00pm 15.3 WSW 14 22 1017.0 - 0.0 - - - - - - -
16/03:30pm 15.3 WSW 14 21 1016.7 - 0.0 - - - - - - -
16/03:00pm 15.3 WSW 15 19 1016.5 - 0.0 - - - - - - -
16/02:30pm 16.4 WSW 12 17 1016.7 - 0.0 - - - - - - -
16/02:00pm 15.5 WSW 10 16 1016.9 - 0.0 - - - - - - -
16/01:30pm 16.2 WSW 11 17 1016.8 - 0.0 - - - - - - -
16/01:00pm 17.4 WSW 9 15 1017.1 - 0.0 - - - - - - -
16/12:30pm 17.0 SW 9 16 1017.5 - 0.0 - - - - - - -
16/12:00pm 16.5 W 9 13 1017.8 - 0.0 - - - - - - -
16/11:30am 15.5 W 14 19 1018.1 - 0.0 - - - - - - -
16/11:00am 16.0 WSW 9 12 1018.3 - 0.0 - - - - - - -
16/10:30am 16.6 SW 6 11 1018.1 - 0.0 - - - - - - -
16/10:00am 15.9 W 5 9 1018.3 - 0.0 - - - - - - -
16/09:30am 14.7 W 7 11 1018.5 - 0.0 - - - - - - -
16/09:00am 15.1 W 6 10 1018.6 - 0.0 - - - - - - -
16/08:30am 13.6 WNW 6 7 1018.6 - 0.0 - - - - - - -
16/08:00am 13.5 NW 5 6 1018.5 - 0.0 - - - - - - -
16/07:30am 12.0 WNW 5 6 1018.4 - 0.0 - - - - - - -
16/07:00am 10.3 WNW 6 7 1018.1 - 0.0 - - - - - - -
16/06:30am 11.5 W 4 5 1017.9 - 0.0 - - - - - - -
16/06:00am 11.5 WSW 4 6 1017.7 - 0.0 - - - - - - -
16/05:30am 12.1 WSW 4 6 1017.6 - 0.0 - - - - - - -
16/05:00am 10.4 W 5 7 1017.5 - 0.0 - - - - - - -
16/04:30am 11.6 WSW 5 7 1017.3 - 0.0 - - - - - - -
16/04:00am 10.6 WSW 6 8 1017.1 - 0.0 - - - - - - -
16/03:30am 11.1 WSW 7 8 1016.9 - 0.0 - - - - - - -
16/03:00am 10.7 WSW 5 8 1016.9 - 0.0 - - - - - - -
16/02:30am 10.4 WSW 5 6 1016.9 - 0.0 - - - - - - -
16/02:00am 10.6 WSW 6 8 1017.1 - 0.0 - - - - - - -
16/01:30am 11.3 WSW 7 10 1017.4 - 0.0 - - - - - - -
16/01:00am 11.6 WSW 6 9 1017.7 - 0.0 - - - - - - -
16/12:30am 12.3 WSW 7 11 1017.9 - 0.0 - - - - - - -
16/12:00am 12.0 WSW 6 9 1017.8 - 0.0 - - - - - - -
 
Date/Time
CST
Temp

°C
Wind Pressure Rain
since 9am
mm
Weather Cloud Vis
km
Sea
Height
m
Swell
Dir
 
Speed
knots
Gust
knots
hPa Trend Height
m
Period
s
Dir
15/11:30pm 11.8 WSW 6 8 1017.8 - 0.0 - - - - - - -
15/11:00pm 11.5 WSW 6 9 1017.8 - 0.0 - - - - - - -
15/10:30pm 11.9 SW 7 10 1017.8 - 0.0 - - - - - - -
15/10:00pm 12.5 SW 8 10 1017.8 - 0.0 - - - - - - -
15/09:30pm 13.5 SW 9 12 1017.9 - 0.0 - - - - - - -
15/09:00pm 13.2 SW 9 13 1017.7 - 0.0 - - - - - - -
15/08:30pm 13.6 SW 11 14 1017.8 - 0.0 - - - - - - -
15/08:00pm 13.4 SW 12 17 1017.6 - 0.0 - - - - - - -
15/07:30pm 13.8 SW 10 15 1017.4 - 0.0 - - - - - - -
15/07:00pm 13.6 SW 11 16 1016.8 - 0.0 - - - - - - -
15/06:30pm 13.7 SW 10 16 1016.2 - 0.0 - - - - - - -
15/06:00pm 14.2 SSW 13 17 1016.1 - 0.0 - - - - - - -
15/05:30pm 14.8 SSW 13 18 1015.7 - 0.0 - - - - - - -

Other Formats:

Comma delimited format used in spreadsheet applications
http://www.bom.gov.au/fwo/IDS60701/IDS60701.94809.axf

JavaScript Object Notation format (JSON) in row-major order
http://www.bom.gov.au/fwo/IDS60701/IDS60701.94809.json